sensor_id;sensor_type;location;lat;lon;timestamp;P1;durP1;ratioP1;P2;durP2;ratioP2
15449;SDS011;7826;49.784;9.934;2022-10-31T00:00:04;18.33;;;5.53;;
15449;SDS011;7826;49.784;9.934;2022-10-31T00:02:33;9.23;;;5.73;;
15449;SDS011;7826;49.784;9.934;2022-10-31T00:04:59;10.93;;;5.33;;
15449;SDS011;7826;49.784;9.934;2022-10-31T00:07:25;9.97;;;4.63;;
15449;SDS011;7826;49.784;9.934;2022-10-31T00:09:51;7.20;;;5.33;;
15449;SDS011;7826;49.784;9.934;2022-10-31T00:12:18;12.30;;;5.20;;
15449;SDS011;7826;49.784;9.934;2022-10-31T00:14:44;5.60;;;4.53;;
15449;SDS011;7826;49.784;9.934;2022-10-31T00:17:10;8.13;;;4.53;;
15449;SDS011;7826;49.784;9.934;2022-10-31T00:19:36;7.10;;;5.10;;
15449;SDS011;7826;49.784;9.934;2022-10-31T00:22:02;10.90;;;5.00;;
15449;SDS011;7826;49.784;9.934;2022-10-31T00:24:29;11.67;;;5.07;;
15449;SDS011;7826;49.784;9.934;2022-10-31T00:26:55;7.53;;;5.10;;
15449;SDS011;7826;49.784;9.934;2022-10-31T00:29:21;5.77;;;4.50;;
15449;SDS011;7826;49.784;9.934;2022-10-31T00:31:47;8.13;;;5.10;;
15449;SDS011;7826;49.784;9.934;2022-10-31T00:34:13;11.33;;;4.80;;
15449;SDS011;7826;49.784;9.934;2022-10-31T00:36:40;13.37;;;3.97;;
15449;SDS011;7826;49.784;9.934;2022-10-31T00:39:06;10.77;;;4.13;;
15449;SDS011;7826;49.784;9.934;2022-10-31T00:41:32;4.70;;;3.90;;
15449;SDS011;7826;49.784;9.934;2022-10-31T00:43:58;7.13;;;4.40;;
15449;SDS011;7826;49.784;9.934;2022-10-31T00:46:24;5.77;;;4.23;;
15449;SDS011;7826;49.784;9.934;2022-10-31T00:48:51;22.90;;;4.77;;
15449;SDS011;7826;49.784;9.934;2022-10-31T00:51:17;7.40;;;3.97;;
15449;SDS011;7826;49.784;9.934;2022-10-31T00:53:43;6.13;;;3.97;;
15449;SDS011;7826;49.784;9.934;2022-10-31T00:56:09;13.50;;;3.80;;
15449;SDS011;7826;49.784;9.934;2022-10-31T00:58:36;4.57;;;3.77;;
15449;SDS011;7826;49.784;9.934;2022-10-31T01:01:02;6.10;;;4.20;;
15449;SDS011;7826;49.784;9.934;2022-10-31T01:03:30;6.07;;;3.90;;
15449;SDS011;7826;49.784;9.934;2022-10-31T01:08:26;5.40;;;3.83;;
15449;SDS011;7826;49.784;9.934;2022-10-31T01:13:33;4.77;;;3.60;;
15449;SDS011;7826;49.784;9.934;2022-10-31T01:16:00;5.43;;;4.00;;
15449;SDS011;7826;49.784;9.934;2022-10-31T01:18:28;5.20;;;3.70;;
15449;SDS011;7826;49.784;9.934;2022-10-31T01:21:03;6.13;;;3.33;;
15449;SDS011;7826;49.784;9.934;2022-10-31T01:23:30;14.17;;;4.93;;
15449;SDS011;7826;49.784;9.934;2022-10-31T01:26:03;4.93;;;4.40;;
15449;SDS011;7826;49.784;9.934;2022-10-31T01:31:27;5.47;;;3.83;;
15449;SDS011;7826;49.784;9.934;2022-10-31T01:33:58;4.63;;;4.23;;
15449;SDS011;7826;49.784;9.934;2022-10-31T01:36:31;7.33;;;3.93;;
15449;SDS011;7826;49.784;9.934;2022-10-31T01:39:03;5.67;;;4.00;;
15449;SDS011;7826;49.784;9.934;2022-10-31T01:41:33;9.90;;;3.63;;
15449;SDS011;7826;49.784;9.934;2022-10-31T01:44:02;10.13;;;3.60;;
15449;SDS011;7826;49.784;9.934;2022-10-31T01:51:57;4.10;;;3.30;;
15449;SDS011;7826;49.784;9.934;2022-10-31T01:54:29;5.60;;;3.93;;
15449;SDS011;7826;49.784;9.934;2022-10-31T01:57:00;4.50;;;3.37;;
15449;SDS011;7826;49.784;9.934;2022-10-31T01:59:29;6.70;;;3.47;;
15449;SDS011;7826;49.784;9.934;2022-10-31T02:01:58;4.60;;;3.67;;
15449;SDS011;7826;49.784;9.934;2022-10-31T02:04:24;15.00;;;4.37;;
15449;SDS011;7826;49.784;9.934;2022-10-31T02:09:52;5.43;;;4.10;;
15449;SDS011;7826;49.784;9.934;2022-10-31T02:12:21;6.87;;;4.00;;
15449;SDS011;7826;49.784;9.934;2022-10-31T02:14:47;14.77;;;4.47;;
15449;SDS011;7826;49.784;9.934;2022-10-31T02:17:14;5.57;;;3.87;;
15449;SDS011;7826;49.784;9.934;2022-10-31T02:19:43;5.00;;;3.70;;
15449;SDS011;7826;49.784;9.934;2022-10-31T02:22:16;3.33;;;3.03;;
15449;SDS011;7826;49.784;9.934;2022-10-31T02:30:21;6.73;;;3.60;;
15449;SDS011;7826;49.784;9.934;2022-10-31T02:46:24;4.13;;;2.87;;
15449;SDS011;7826;49.784;9.934;2022-10-31T02:48:52;3.53;;;3.07;;
15449;SDS011;7826;49.784;9.934;2022-10-31T02:51:24;7.03;;;3.40;;
15449;SDS011;7826;49.784;9.934;2022-10-31T02:53:51;6.53;;;3.50;;
15449;SDS011;7826;49.784;9.934;2022-10-31T02:56:18;3.40;;;3.10;;
15449;SDS011;7826;49.784;9.934;2022-10-31T02:58:49;11.57;;;3.23;;
15449;SDS011;7826;49.784;9.934;2022-10-31T03:09:35;3.07;;;2.60;;
15449;SDS011;7826;49.784;9.934;2022-10-31T03:12:14;2.93;;;2.70;;
15449;SDS011;7826;49.784;9.934;2022-10-31T03:14:56;3.97;;;2.90;;
15449;SDS011;7826;49.784;9.934;2022-10-31T03:17:29;6.00;;;3.20;;
15449;SDS011;7826;49.784;9.934;2022-10-31T03:20:03;3.50;;;2.90;;
15449;SDS011;7826;49.784;9.934;2022-10-31T03:22:32;4.37;;;3.37;;
15449;SDS011;7826;49.784;9.934;2022-10-31T03:25:00;3.37;;;2.90;;
15449;SDS011;7826;49.784;9.934;2022-10-31T03:27:31;4.43;;;3.63;;
15449;SDS011;7826;49.784;9.934;2022-10-31T03:30:00;3.30;;;3.00;;
15449;SDS011;7826;49.784;9.934;2022-10-31T03:32:34;3.47;;;3.13;;
15449;SDS011;7826;49.784;9.934;2022-10-31T03:35:06;4.97;;;3.03;;
15449;SDS011;7826;49.784;9.934;2022-10-31T03:37:34;5.97;;;2.93;;
15449;SDS011;7826;49.784;9.934;2022-10-31T03:40:02;4.30;;;2.80;;
15449;SDS011;7826;49.784;9.934;2022-10-31T03:42:33;3.57;;;3.20;;
15449;SDS011;7826;49.784;9.934;2022-10-31T03:47:49;3.40;;;3.10;;
15449;SDS011;7826;49.784;9.934;2022-10-31T03:50:17;3.87;;;2.93;;
15449;SDS011;7826;49.784;9.934;2022-10-31T03:55:20;3.43;;;2.97;;
15449;SDS011;7826;49.784;9.934;2022-10-31T03:57:59;2.60;;;2.40;;
15449;SDS011;7826;49.784;9.934;2022-10-31T04:00:29;3.87;;;2.67;;
15449;SDS011;7826;49.784;9.934;2022-10-31T04:03:00;4.97;;;3.40;;
15449;SDS011;7826;49.784;9.934;2022-10-31T04:05:32;3.30;;;2.87;;
15449;SDS011;7826;49.784;9.934;2022-10-31T04:08:00;3.53;;;2.87;;
15449;SDS011;7826;49.784;9.934;2022-10-31T04:10:29;4.70;;;2.73;;
15449;SDS011;7826;49.784;9.934;2022-10-31T04:13:01;4.10;;;3.30;;
15449;SDS011;7826;49.784;9.934;2022-10-31T04:15:30;4.70;;;2.50;;
15449;SDS011;7826;49.784;9.934;2022-10-31T04:17:58;6.93;;;3.37;;
15449;SDS011;7826;49.784;9.934;2022-10-31T04:20:29;8.97;;;2.70;;
15449;SDS011;7826;49.784;9.934;2022-10-31T04:22:57;4.23;;;3.20;;
15449;SDS011;7826;49.784;9.934;2022-10-31T04:25:23;9.67;;;3.97;;
15449;SDS011;7826;49.784;9.934;2022-10-31T04:27:50;3.33;;;2.93;;
15449;SDS011;7826;49.784;9.934;2022-10-31T04:30:16;10.20;;;3.33;;
15449;SDS011;7826;49.784;9.934;2022-10-31T04:32:42;11.33;;;3.17;;
15449;SDS011;7826;49.784;9.934;2022-10-31T04:35:09;3.83;;;2.73;;
15449;SDS011;7826;49.784;9.934;2022-10-31T04:37:35;3.07;;;2.77;;
15449;SDS011;7826;49.784;9.934;2022-10-31T04:40:01;9.67;;;3.07;;
15449;SDS011;7826;49.784;9.934;2022-10-31T04:42:31;21.13;;;2.90;;
15449;SDS011;7826;49.784;9.934;2022-10-31T04:44:57;7.67;;;2.70;;
15449;SDS011;7826;49.784;9.934;2022-10-31T04:47:24;4.40;;;3.13;;
15449;SDS011;7826;49.784;9.934;2022-10-31T04:50:08;17.47;;;3.23;;
15449;SDS011;7826;49.784;9.934;2022-10-31T04:52:39;3.80;;;3.33;;
15449;SDS011;7826;49.784;9.934;2022-10-31T04:55:06;3.43;;;2.77;;
15449;SDS011;7826;49.784;9.934;2022-10-31T04:57:32;4.77;;;2.93;;
15449;SDS011;7826;49.784;9.934;2022-10-31T05:00:05;3.43;;;3.07;;
15449;SDS011;7826;49.784;9.934;2022-10-31T05:02:32;4.20;;;3.37;;
15449;SDS011;7826;49.784;9.934;2022-10-31T05:04:59;5.20;;;3.40;;
15449;SDS011;7826;49.784;9.934;2022-10-31T05:07:25;5.23;;;3.20;;
15449;SDS011;7826;49.784;9.934;2022-10-31T05:09:52;5.07;;;3.03;;
15449;SDS011;7826;49.784;9.934;2022-10-31T05:12:18;3.43;;;2.90;;
15449;SDS011;7826;49.784;9.934;2022-10-31T05:14:44;3.50;;;3.10;;
15449;SDS011;7826;49.784;9.934;2022-10-31T05:17:10;6.43;;;2.67;;
15449;SDS011;7826;49.784;9.934;2022-10-31T05:19:36;4.73;;;3.13;;
15449;SDS011;7826;49.784;9.934;2022-10-31T05:22:03;5.83;;;2.80;;
15449;SDS011;7826;49.784;9.934;2022-10-31T05:24:29;3.93;;;3.20;;
15449;SDS011;7826;49.784;9.934;2022-10-31T05:26:55;4.83;;;3.17;;
15449;SDS011;7826;49.784;9.934;2022-10-31T05:29:21;4.57;;;3.23;;
15449;SDS011;7826;49.784;9.934;2022-10-31T05:31:48;6.20;;;3.40;;
15449;SDS011;7826;49.784;9.934;2022-10-31T05:34:14;6.00;;;3.27;;
15449;SDS011;7826;49.784;9.934;2022-10-31T05:36:40;4.23;;;2.97;;
15449;SDS011;7826;49.784;9.934;2022-10-31T05:39:07;6.93;;;3.30;;
15449;SDS011;7826;49.784;9.934;2022-10-31T05:41:33;6.27;;;3.53;;
15449;SDS011;7826;49.784;9.934;2022-10-31T05:44:00;4.23;;;3.40;;
15449;SDS011;7826;49.784;9.934;2022-10-31T05:46:26;4.83;;;3.50;;
15449;SDS011;7826;49.784;9.934;2022-10-31T05:48:52;4.30;;;3.27;;
15449;SDS011;7826;49.784;9.934;2022-10-31T05:51:18;3.63;;;2.90;;
15449;SDS011;7826;49.784;9.934;2022-10-31T05:53:45;4.30;;;3.20;;
15449;SDS011;7826;49.784;9.934;2022-10-31T05:56:12;4.57;;;3.33;;
15449;SDS011;7826;49.784;9.934;2022-10-31T05:58:39;5.47;;;3.50;;
15449;SDS011;7826;49.784;9.934;2022-10-31T06:01:05;7.27;;;3.43;;
15449;SDS011;7826;49.784;9.934;2022-10-31T06:03:31;5.00;;;3.70;;
15449;SDS011;7826;49.784;9.934;2022-10-31T06:05:58;8.10;;;2.80;;
15449;SDS011;7826;49.784;9.934;2022-10-31T06:08:24;15.03;;;3.60;;
15449;SDS011;7826;49.784;9.934;2022-10-31T06:10:50;4.53;;;3.07;;
15449;SDS011;7826;49.784;9.934;2022-10-31T06:13:18;8.03;;;3.60;;
15449;SDS011;7826;49.784;9.934;2022-10-31T06:15:44;3.87;;;3.20;;
15449;SDS011;7826;49.784;9.934;2022-10-31T06:18:11;3.30;;;3.00;;
15449;SDS011;7826;49.784;9.934;2022-10-31T06:20:37;4.57;;;3.17;;
15449;SDS011;7826;49.784;9.934;2022-10-31T06:23:03;9.50;;;3.73;;
15449;SDS011;7826;49.784;9.934;2022-10-31T06:25:30;3.83;;;3.33;;
15449;SDS011;7826;49.784;9.934;2022-10-31T06:27:56;6.10;;;3.53;;
15449;SDS011;7826;49.784;9.934;2022-10-31T06:30:23;3.80;;;3.27;;
15449;SDS011;7826;49.784;9.934;2022-10-31T06:32:49;3.80;;;3.37;;
15449;SDS011;7826;49.784;9.934;2022-10-31T06:35:16;4.00;;;3.20;;
15449;SDS011;7826;49.784;9.934;2022-10-31T06:37:50;3.57;;;3.00;;
15449;SDS011;7826;49.784;9.934;2022-10-31T06:40:17;5.77;;;3.20;;
15449;SDS011;7826;49.784;9.934;2022-10-31T06:42:44;3.47;;;3.17;;
15449;SDS011;7826;49.784;9.934;2022-10-31T06:45:10;3.90;;;3.30;;
15449;SDS011;7826;49.784;9.934;2022-10-31T06:47:36;4.23;;;3.27;;
15449;SDS011;7826;49.784;9.934;2022-10-31T06:50:02;4.67;;;3.30;;
15449;SDS011;7826;49.784;9.934;2022-10-31T06:52:29;4.77;;;3.60;;
15449;SDS011;7826;49.784;9.934;2022-10-31T06:54:55;3.93;;;3.30;;
15449;SDS011;7826;49.784;9.934;2022-10-31T06:57:22;5.57;;;3.77;;
15449;SDS011;7826;49.784;9.934;2022-10-31T06:59:48;3.73;;;3.30;;
15449;SDS011;7826;49.784;9.934;2022-10-31T07:02:14;8.83;;;3.47;;
15449;SDS011;7826;49.784;9.934;2022-10-31T07:04:40;6.73;;;3.60;;
15449;SDS011;7826;49.784;9.934;2022-10-31T07:07:06;12.67;;;4.53;;
15449;SDS011;7826;49.784;9.934;2022-10-31T07:09:33;8.17;;;3.57;;
15449;SDS011;7826;49.784;9.934;2022-10-31T07:11:59;5.80;;;3.90;;
15449;SDS011;7826;49.784;9.934;2022-10-31T07:14:25;8.30;;;3.77;;
15449;SDS011;7826;49.784;9.934;2022-10-31T07:16:51;9.97;;;4.23;;
15449;SDS011;7826;49.784;9.934;2022-10-31T07:19:18;4.73;;;3.93;;
15449;SDS011;7826;49.784;9.934;2022-10-31T07:21:44;5.60;;;4.10;;
15449;SDS011;7826;49.784;9.934;2022-10-31T07:24:10;5.63;;;3.93;;
15449;SDS011;7826;49.784;9.934;2022-10-31T07:26:37;11.60;;;4.23;;
15449;SDS011;7826;49.784;9.934;2022-10-31T07:29:03;5.90;;;4.40;;
15449;SDS011;7826;49.784;9.934;2022-10-31T07:31:29;10.27;;;4.60;;
15449;SDS011;7826;49.784;9.934;2022-10-31T07:33:56;7.37;;;4.33;;
15449;SDS011;7826;49.784;9.934;2022-10-31T07:36:22;7.37;;;4.80;;
15449;SDS011;7826;49.784;9.934;2022-10-31T07:38:49;5.87;;;4.00;;
15449;SDS011;7826;49.784;9.934;2022-10-31T07:41:15;8.73;;;3.93;;
15449;SDS011;7826;49.784;9.934;2022-10-31T07:43:41;7.23;;;4.13;;
15449;SDS011;7826;49.784;9.934;2022-10-31T07:46:08;5.10;;;4.13;;
15449;SDS011;7826;49.784;9.934;2022-10-31T07:48:34;5.63;;;4.20;;
15449;SDS011;7826;49.784;9.934;2022-10-31T07:51:01;9.47;;;4.27;;
15449;SDS011;7826;49.784;9.934;2022-10-31T07:53:27;6.50;;;4.43;;
15449;SDS011;7826;49.784;9.934;2022-10-31T07:55:53;8.27;;;4.07;;
15449;SDS011;7826;49.784;9.934;2022-10-31T07:58:20;4.57;;;3.90;;
15449;SDS011;7826;49.784;9.934;2022-10-31T08:00:47;5.00;;;3.80;;
15449;SDS011;7826;49.784;9.934;2022-10-31T08:03:14;5.03;;;4.20;;
15449;SDS011;7826;49.784;9.934;2022-10-31T08:05:42;5.30;;;3.37;;
15449;SDS011;7826;49.784;9.934;2022-10-31T08:08:11;7.37;;;5.23;;
15449;SDS011;7826;49.784;9.934;2022-10-31T08:10:39;12.60;;;4.03;;
15449;SDS011;7826;49.784;9.934;2022-10-31T08:13:07;6.03;;;3.67;;
15449;SDS011;7826;49.784;9.934;2022-10-31T08:15:35;9.63;;;4.27;;
15449;SDS011;7826;49.784;9.934;2022-10-31T08:18:04;7.43;;;4.10;;
15449;SDS011;7826;49.784;9.934;2022-10-31T08:20:31;6.37;;;4.23;;
15449;SDS011;7826;49.784;9.934;2022-10-31T08:22:58;5.77;;;4.07;;
15449;SDS011;7826;49.784;9.934;2022-10-31T08:25:27;6.90;;;4.60;;
15449;SDS011;7826;49.784;9.934;2022-10-31T08:27:55;4.70;;;3.80;;
15449;SDS011;7826;49.784;9.934;2022-10-31T08:30:23;8.53;;;4.00;;
15449;SDS011;7826;49.784;9.934;2022-10-31T08:33:02;5.67;;;4.17;;
15449;SDS011;7826;49.784;9.934;2022-10-31T08:35:28;6.20;;;4.67;;
15449;SDS011;7826;49.784;9.934;2022-10-31T08:37:56;4.83;;;3.50;;
15449;SDS011;7826;49.784;9.934;2022-10-31T08:40:23;5.73;;;4.10;;
15449;SDS011;7826;49.784;9.934;2022-10-31T08:42:57;5.13;;;3.90;;
15449;SDS011;7826;49.784;9.934;2022-10-31T08:45:27;5.73;;;4.07;;
15449;SDS011;7826;49.784;9.934;2022-10-31T08:48:04;6.43;;;4.30;;
15449;SDS011;7826;49.784;9.934;2022-10-31T08:50:33;6.23;;;4.37;;
15449;SDS011;7826;49.784;9.934;2022-10-31T08:53:01;5.00;;;3.90;;
15449;SDS011;7826;49.784;9.934;2022-10-31T08:55:38;5.93;;;4.37;;
15449;SDS011;7826;49.784;9.934;2022-10-31T08:58:06;5.27;;;3.93;;
15449;SDS011;7826;49.784;9.934;2022-10-31T09:00:35;7.23;;;4.67;;
15449;SDS011;7826;49.784;9.934;2022-10-31T09:03:06;7.90;;;5.30;;
15449;SDS011;7826;49.784;9.934;2022-10-31T09:05:46;10.87;;;4.47;;
15449;SDS011;7826;49.784;9.934;2022-10-31T09:08:13;7.20;;;4.50;;
15449;SDS011;7826;49.784;9.934;2022-10-31T09:10:40;5.73;;;3.83;;
15449;SDS011;7826;49.784;9.934;2022-10-31T09:13:11;4.03;;;3.43;;
15449;SDS011;7826;49.784;9.934;2022-10-31T09:15:39;8.10;;;3.57;;
15449;SDS011;7826;49.784;9.934;2022-10-31T09:18:08;4.90;;;3.83;;
15449;SDS011;7826;49.784;9.934;2022-10-31T09:20:35;5.00;;;3.80;;
15449;SDS011;7826;49.784;9.934;2022-10-31T09:25:34;5.83;;;3.77;;
15449;SDS011;7826;49.784;9.934;2022-10-31T09:28:01;6.00;;;3.40;;
15449;SDS011;7826;49.784;9.934;2022-10-31T09:30:29;4.70;;;4.17;;
15449;SDS011;7826;49.784;9.934;2022-10-31T09:32:58;6.40;;;4.40;;
15449;SDS011;7826;49.784;9.934;2022-10-31T09:35:29;4.37;;;3.97;;
15449;SDS011;7826;49.784;9.934;2022-10-31T09:37:56;5.10;;;3.70;;
15449;SDS011;7826;49.784;9.934;2022-10-31T09:40:35;11.20;;;4.67;;
15449;SDS011;7826;49.784;9.934;2022-10-31T09:46:26;4.93;;;3.87;;
15449;SDS011;7826;49.784;9.934;2022-10-31T09:48:37;5.77;;;3.90;;
15449;SDS011;7826;49.784;9.934;2022-10-31T09:51:10;7.03;;;4.53;;
15449;SDS011;7826;49.784;9.934;2022-10-31T09:56:39;5.77;;;4.10;;
15449;SDS011;7826;49.784;9.934;2022-10-31T09:59:10;7.80;;;4.07;;
15449;SDS011;7826;49.784;9.934;2022-10-31T10:07:11;5.17;;;3.80;;
15449;SDS011;7826;49.784;9.934;2022-10-31T10:09:49;6.87;;;4.17;;
15449;SDS011;7826;49.784;9.934;2022-10-31T10:17:50;6.43;;;4.87;;
15449;SDS011;7826;49.784;9.934;2022-10-31T10:21:03;7.83;;;4.50;;
15449;SDS011;7826;49.784;9.934;2022-10-31T10:25:57;6.97;;;4.77;;
15449;SDS011;7826;49.784;9.934;2022-10-31T10:28:36;6.50;;;4.43;;
15449;SDS011;7826;49.784;9.934;2022-10-31T10:31:07;7.40;;;4.60;;
15449;SDS011;7826;49.784;9.934;2022-10-31T10:33:52;10.73;;;4.93;;
15449;SDS011;7826;49.784;9.934;2022-10-31T10:39:17;9.10;;;4.60;;
15449;SDS011;7826;49.784;9.934;2022-10-31T10:42:10;10.73;;;5.43;;
15449;SDS011;7826;49.784;9.934;2022-10-31T10:44:56;8.30;;;4.87;;
15449;SDS011;7826;49.784;9.934;2022-10-31T10:47:43;9.00;;;5.47;;
15449;SDS011;7826;49.784;9.934;2022-10-31T10:50:19;6.60;;;4.60;;
15449;SDS011;7826;49.784;9.934;2022-10-31T10:52:54;10.23;;;5.40;;
15449;SDS011;7826;49.784;9.934;2022-10-31T10:55:36;7.20;;;4.90;;
15449;SDS011;7826;49.784;9.934;2022-10-31T10:58:07;7.53;;;5.00;;
15449;SDS011;7826;49.784;9.934;2022-10-31T11:00:35;9.63;;;4.73;;
15449;SDS011;7826;49.784;9.934;2022-10-31T11:03:05;7.57;;;4.77;;
15449;SDS011;7826;49.784;9.934;2022-10-31T11:08:01;8.63;;;5.40;;
15449;SDS011;7826;49.784;9.934;2022-10-31T11:10:28;7.20;;;5.27;;
15449;SDS011;7826;49.784;9.934;2022-10-31T11:15:58;7.40;;;5.13;;
15449;SDS011;7826;49.784;9.934;2022-10-31T11:18:42;8.63;;;5.03;;
15449;SDS011;7826;49.784;9.934;2022-10-31T11:21:21;8.50;;;5.63;;
15449;SDS011;7826;49.784;9.934;2022-10-31T11:24:02;7.63;;;5.40;;
15449;SDS011;7826;49.784;9.934;2022-10-31T11:26:29;8.60;;;5.13;;
15449;SDS011;7826;49.784;9.934;2022-10-31T11:28:56;8.83;;;5.60;;
15449;SDS011;7826;49.784;9.934;2022-10-31T11:31:24;6.77;;;5.03;;
15449;SDS011;7826;49.784;9.934;2022-10-31T11:33:59;9.17;;;6.13;;
15449;SDS011;7826;49.784;9.934;2022-10-31T11:36:32;7.60;;;5.30;;
15449;SDS011;7826;49.784;9.934;2022-10-31T11:39:02;9.20;;;5.27;;
15449;SDS011;7826;49.784;9.934;2022-10-31T11:41:33;7.37;;;5.50;;
15449;SDS011;7826;49.784;9.934;2022-10-31T11:44:12;7.17;;;5.63;;
15449;SDS011;7826;49.784;9.934;2022-10-31T11:46:58;8.60;;;5.47;;
15449;SDS011;7826;49.784;9.934;2022-10-31T11:49:30;9.63;;;5.23;;
15449;SDS011;7826;49.784;9.934;2022-10-31T11:52:01;10.27;;;5.97;;
15449;SDS011;7826;49.784;9.934;2022-10-31T11:54:44;9.23;;;5.23;;
15449;SDS011;7826;49.784;9.934;2022-10-31T11:57:21;9.07;;;6.00;;
15449;SDS011;7826;49.784;9.934;2022-10-31T11:59:51;7.97;;;5.80;;
15449;SDS011;7826;49.784;9.934;2022-10-31T12:02:22;9.87;;;6.10;;
15449;SDS011;7826;49.784;9.934;2022-10-31T12:04:51;10.00;;;6.20;;
15449;SDS011;7826;49.784;9.934;2022-10-31T12:07:43;9.33;;;5.87;;
15449;SDS011;7826;49.784;9.934;2022-10-31T12:10:10;7.33;;;5.77;;
15449;SDS011;7826;49.784;9.934;2022-10-31T12:17:52;7.83;;;5.70;;
15449;SDS011;7826;49.784;9.934;2022-10-31T12:40:12;9.67;;;6.90;;
15449;SDS011;7826;49.784;9.934;2022-10-31T12:56:50;10.10;;;6.63;;
15449;SDS011;7826;49.784;9.934;2022-10-31T12:59:31;9.77;;;6.77;;
15449;SDS011;7826;49.784;9.934;2022-10-31T13:05:13;9.93;;;6.60;;
15449;SDS011;7826;49.784;9.934;2022-10-31T13:07:57;9.97;;;6.97;;
15449;SDS011;7826;49.784;9.934;2022-10-31T13:10:33;9.60;;;7.17;;
15449;SDS011;7826;49.784;9.934;2022-10-31T13:13:12;11.00;;;7.00;;
15449;SDS011;7826;49.784;9.934;2022-10-31T13:15:53;11.03;;;6.80;;
15449;SDS011;7826;49.784;9.934;2022-10-31T13:18:30;9.47;;;7.00;;
15449;SDS011;7826;49.784;9.934;2022-10-31T13:21:11;11.57;;;6.90;;
15449;SDS011;7826;49.784;9.934;2022-10-31T13:23:45;8.90;;;6.40;;
15449;SDS011;7826;49.784;9.934;2022-10-31T13:26:21;8.20;;;6.10;;
15449;SDS011;7826;49.784;9.934;2022-10-31T13:32:15;8.03;;;6.40;;
15449;SDS011;7826;49.784;9.934;2022-10-31T13:34:50;9.93;;;6.90;;
15449;SDS011;7826;49.784;9.934;2022-10-31T13:37:35;9.10;;;6.77;;
15449;SDS011;7826;49.784;9.934;2022-10-31T13:45:26;9.07;;;6.67;;
15449;SDS011;7826;49.784;9.934;2022-10-31T13:47:59;9.33;;;6.57;;
15449;SDS011;7826;49.784;9.934;2022-10-31T13:50:56;9.50;;;6.97;;
15449;SDS011;7826;49.784;9.934;2022-10-31T13:53:35;8.73;;;6.77;;
15449;SDS011;7826;49.784;9.934;2022-10-31T13:58:41;10.67;;;7.40;;
15449;SDS011;7826;49.784;9.934;2022-10-31T14:01:21;9.83;;;6.87;;
15449;SDS011;7826;49.784;9.934;2022-10-31T14:04:22;8.93;;;7.33;;
15449;SDS011;7826;49.784;9.934;2022-10-31T14:10:24;10.37;;;7.50;;
15449;SDS011;7826;49.784;9.934;2022-10-31T14:15:15;9.43;;;6.40;;
15449;SDS011;7826;49.784;9.934;2022-10-31T14:17:46;10.60;;;7.77;;
15449;SDS011;7826;49.784;9.934;2022-10-31T14:25:53;9.83;;;7.47;;
15449;SDS011;7826;49.784;9.934;2022-10-31T14:28:31;10.13;;;7.27;;
15449;SDS011;7826;49.784;9.934;2022-10-31T14:31:00;12.53;;;7.27;;
15449;SDS011;7826;49.784;9.934;2022-10-31T14:33:28;8.50;;;6.63;;
15449;SDS011;7826;49.784;9.934;2022-10-31T14:39:17;10.20;;;7.13;;
15449;SDS011;7826;49.784;9.934;2022-10-31T14:42:05;10.73;;;6.93;;
15449;SDS011;7826;49.784;9.934;2022-10-31T14:50:49;12.83;;;6.93;;
15449;SDS011;7826;49.784;9.934;2022-10-31T14:53:22;8.93;;;6.67;;
15449;SDS011;7826;49.784;9.934;2022-10-31T14:55:54;13.70;;;7.90;;
15449;SDS011;7826;49.784;9.934;2022-10-31T14:58:27;12.47;;;7.63;;
15449;SDS011;7826;49.784;9.934;2022-10-31T15:01:05;12.10;;;7.30;;
15449;SDS011;7826;49.784;9.934;2022-10-31T15:03:33;11.00;;;7.70;;
15449;SDS011;7826;49.784;9.934;2022-10-31T15:06:14;15.23;;;7.90;;
15449;SDS011;7826;49.784;9.934;2022-10-31T15:08:52;10.67;;;6.90;;
15449;SDS011;7826;49.784;9.934;2022-10-31T15:13:55;11.20;;;7.30;;
15449;SDS011;7826;49.784;9.934;2022-10-31T15:16:23;14.27;;;8.23;;
15449;SDS011;7826;49.784;9.934;2022-10-31T15:19:04;14.00;;;7.73;;
15449;SDS011;7826;49.784;9.934;2022-10-31T15:21:32;13.47;;;8.13;;
15449;SDS011;7826;49.784;9.934;2022-10-31T15:24:00;11.17;;;7.23;;
15449;SDS011;7826;49.784;9.934;2022-10-31T15:26:31;13.50;;;8.00;;
15449;SDS011;7826;49.784;9.934;2022-10-31T15:29:01;12.77;;;8.20;;
15449;SDS011;7826;49.784;9.934;2022-10-31T15:31:36;11.57;;;7.67;;
15449;SDS011;7826;49.784;9.934;2022-10-31T15:34:04;13.03;;;8.07;;
15449;SDS011;7826;49.784;9.934;2022-10-31T15:36:37;12.47;;;8.20;;
15449;SDS011;7826;49.784;9.934;2022-10-31T15:39:04;12.80;;;8.43;;
15449;SDS011;7826;49.784;9.934;2022-10-31T15:41:34;13.53;;;7.63;;
15449;SDS011;7826;49.784;9.934;2022-10-31T15:44:23;14.90;;;8.67;;
15449;SDS011;7826;49.784;9.934;2022-10-31T15:47:00;13.10;;;8.77;;
15449;SDS011;7826;49.784;9.934;2022-10-31T15:49:35;14.37;;;8.67;;
15449;SDS011;7826;49.784;9.934;2022-10-31T15:52:05;16.67;;;8.87;;
15449;SDS011;7826;49.784;9.934;2022-10-31T15:54:32;15.50;;;8.80;;
15449;SDS011;7826;49.784;9.934;2022-10-31T15:56:59;14.37;;;7.70;;
15449;SDS011;7826;49.784;9.934;2022-10-31T15:59:26;13.10;;;7.67;;
15449;SDS011;7826;49.784;9.934;2022-10-31T16:02:01;14.27;;;8.67;;
15449;SDS011;7826;49.784;9.934;2022-10-31T16:04:34;14.83;;;8.27;;
15449;SDS011;7826;49.784;9.934;2022-10-31T16:07:02;14.33;;;8.40;;
15449;SDS011;7826;49.784;9.934;2022-10-31T16:09:48;14.73;;;8.60;;
15449;SDS011;7826;49.784;9.934;2022-10-31T16:12:32;14.20;;;8.57;;
15449;SDS011;7826;49.784;9.934;2022-10-31T16:15:01;13.83;;;8.40;;
15449;SDS011;7826;49.784;9.934;2022-10-31T16:17:29;13.40;;;8.83;;
15449;SDS011;7826;49.784;9.934;2022-10-31T16:22:39;15.73;;;9.43;;
15449;SDS011;7826;49.784;9.934;2022-10-31T16:27:46;13.83;;;8.87;;
15449;SDS011;7826;49.784;9.934;2022-10-31T16:33:04;14.73;;;8.80;;
15449;SDS011;7826;49.784;9.934;2022-10-31T16:35:46;15.63;;;9.43;;
15449;SDS011;7826;49.784;9.934;2022-10-31T16:38:13;13.37;;;9.00;;
15449;SDS011;7826;49.784;9.934;2022-10-31T16:40:39;22.10;;;9.63;;
15449;SDS011;7826;49.784;9.934;2022-10-31T16:43:10;14.80;;;8.70;;
15449;SDS011;7826;49.784;9.934;2022-10-31T16:45:42;19.40;;;9.57;;
15449;SDS011;7826;49.784;9.934;2022-10-31T16:48:12;14.13;;;9.30;;
15449;SDS011;7826;49.784;9.934;2022-10-31T16:50:44;18.57;;;9.30;;
15449;SDS011;7826;49.784;9.934;2022-10-31T16:53:12;25.57;;;10.60;;
15449;SDS011;7826;49.784;9.934;2022-10-31T16:58:17;15.30;;;9.20;;
15449;SDS011;7826;49.784;9.934;2022-10-31T17:00:47;18.30;;;10.00;;
15449;SDS011;7826;49.784;9.934;2022-10-31T17:03:14;13.07;;;9.00;;
15449;SDS011;7826;49.784;9.934;2022-10-31T17:05:40;16.33;;;9.40;;
15449;SDS011;7826;49.784;9.934;2022-10-31T17:08:06;17.27;;;9.67;;
15449;SDS011;7826;49.784;9.934;2022-10-31T17:10:32;16.77;;;10.03;;
15449;SDS011;7826;49.784;9.934;2022-10-31T17:13:00;13.70;;;8.80;;
15449;SDS011;7826;49.784;9.934;2022-10-31T17:15:28;17.20;;;9.20;;
15449;SDS011;7826;49.784;9.934;2022-10-31T17:18:03;15.43;;;9.47;;
15449;SDS011;7826;49.784;9.934;2022-10-31T17:20:29;13.80;;;9.27;;
15449;SDS011;7826;49.784;9.934;2022-10-31T17:22:57;14.07;;;8.43;;
15449;SDS011;7826;49.784;9.934;2022-10-31T17:25:25;14.27;;;8.37;;
15449;SDS011;7826;49.784;9.934;2022-10-31T17:27:53;30.07;;;9.47;;
15449;SDS011;7826;49.784;9.934;2022-10-31T17:30:20;15.93;;;9.03;;
15449;SDS011;7826;49.784;9.934;2022-10-31T17:32:47;18.73;;;9.13;;
15449;SDS011;7826;49.784;9.934;2022-10-31T17:35:15;17.67;;;9.47;;
15449;SDS011;7826;49.784;9.934;2022-10-31T17:37:43;15.50;;;9.40;;
15449;SDS011;7826;49.784;9.934;2022-10-31T17:40:11;22.90;;;9.40;;
15449;SDS011;7826;49.784;9.934;2022-10-31T17:42:39;16.67;;;9.43;;
15449;SDS011;7826;49.784;9.934;2022-10-31T17:45:06;12.83;;;7.97;;
15449;SDS011;7826;49.784;9.934;2022-10-31T17:47:34;18.23;;;10.00;;
15449;SDS011;7826;49.784;9.934;2022-10-31T17:50:00;13.77;;;8.30;;
15449;SDS011;7826;49.784;9.934;2022-10-31T17:52:26;14.77;;;8.63;;
15449;SDS011;7826;49.784;9.934;2022-10-31T17:54:53;14.70;;;8.47;;
15449;SDS011;7826;49.784;9.934;2022-10-31T17:57:19;18.47;;;9.87;;
15449;SDS011;7826;49.784;9.934;2022-10-31T17:59:46;13.93;;;8.57;;
15449;SDS011;7826;49.784;9.934;2022-10-31T18:02:12;16.10;;;9.37;;